»·PEaware :: FDX28 KPHX-KLAX

FDX28 :: KPHX-KLAX

FLIGHT INFORMATION

Flight Status: Arrived
Operator:
Federal Express
More flights by this operator :: More flights under this callsign
Pilot: Anonymous 7386 (7386)
Aircraft: BOEING 767-300
(B763)
More flights by this aircraft type
Origin: KPHX Phoenix Sky Harbor Intl
United States
Destination: KLAX Los Angeles Intl
United States
More flights between these airports :: More routes between these airports
Route: KEENS2 MESSI ESTWD HLYWD1
File this flight plan on PilotEdge
Remarks:
Altitude:
(Current/Filed)
34,000ft
Speed:
(Current/Filed)
454kts
Departed: 22-May-20 03:21 PM
Arrived: 22-May-20 04:23 PM
Distance/Time
Traveled:
321nm/1:02
Distance/Time
To Go:
Arrived

Flight Plot

Page will automatically refresh every two minutes.

Flight plan parsing failed; only flown route is shown


Map Options




Map Legend


Flown Route
Filed Route
Departure Airport
Arrival Airport
Navaid (VOR, NDB)
Fix

Horizontal Profiles

Position Reports

Time Latitude Longitude Heading Altitude Ground
Speed
22-May-20 14:38 33.426329 -112.018108 89 1120ft 0kts
22-May-20 14:39 33.426329 -112.018108 89 1120ft 0kts
22-May-20 14:40 33.426329 -112.018108 89 1120ft 0kts
22-May-20 14:41 33.426329 -112.018108 89 1120ft 0kts
22-May-20 14:42 33.426329 -112.018108 89 1120ft 0kts
22-May-20 14:43 33.426329 -112.018108 89 1120ft 0kts
22-May-20 14:44 33.426329 -112.018108 89 1120ft 0kts
22-May-20 14:44 33.426329 -112.018108 89 1120ft 0kts
22-May-20 14:46 33.426329 -112.018108 89 1120ft 0kts
22-May-20 14:47 33.426329 -112.018108 89 1120ft 0kts
22-May-20 14:47 33.426329 -112.018108 89 1120ft 0kts
22-May-20 14:48 33.426329 -112.018108 89 1120ft 0kts
22-May-20 14:49 33.426329 -112.018108 89 1120ft 0kts
22-May-20 14:50 33.426329 -112.018108 89 1120ft 0kts
22-May-20 14:51 33.426329 -112.018108 89 1120ft 0kts
22-May-20 14:52 33.426329 -112.018108 89 1120ft 0kts
22-May-20 14:53 33.426329 -112.018108 89 1120ft 0kts
22-May-20 14:54 33.426329 -112.018108 89 1120ft 0kts
22-May-20 14:55 33.426329 -112.018108 89 1120ft 0kts
22-May-20 14:56 33.426329 -112.018108 89 1120ft 0kts
22-May-20 14:57 33.426329 -112.018108 89 1120ft 0kts
22-May-20 14:58 33.426329 -112.018108 89 1120ft 0kts
22-May-20 14:59 33.426329 -112.018108 89 1120ft 0kts
22-May-20 15:00 33.426329 -112.018108 89 1120ft 0kts
22-May-20 15:01 33.426329 -112.018108 89 1120ft 0kts
22-May-20 15:02 33.426329 -112.018108 89 1120ft 0kts
22-May-20 15:03 33.426329 -112.018108 89 1120ft 0kts
22-May-20 15:04 33.426329 -112.018108 89 1120ft 0kts
22-May-20 15:05 33.426329 -112.018107 89 1120ft 0kts
22-May-20 15:06 33.426329 -112.018107 89 1120ft 0kts
22-May-20 15:07 33.426329 -112.018107 89 1120ft 0kts
22-May-20 15:08 33.426329 -112.018107 89 1120ft 0kts
22-May-20 15:09 33.426329 -112.018107 89 1120ft 0kts
22-May-20 15:10 33.426329 -112.018107 89 1120ft 0kts
22-May-20 15:11 33.426329 -112.018107 89 1120ft 0kts
22-May-20 15:12 33.426507 -112.017529 38 1120ft 3kts
22-May-20 15:13 33.426920 -112.017407 2 1120ft 0kts
22-May-20 15:14 33.427756 -112.018457 271 1120ft 10kts
22-May-20 15:15 33.427758 -112.022392 269 1120ft 15kts
22-May-20 15:16 33.427819 -112.026596 291 1120ft 4kts
22-May-20 15:17 33.427851 -112.026663 301 1120ft 0kts
22-May-20 15:18 33.427871 -112.026697 305 1120ft 1kts
22-May-20 15:19 33.430091 -112.026957 359 1120ft 9kts
22-May-20 15:20 33.431072 -112.023764 89 1120ft 54kts
22-May-20 15:21 33.431406 -111.976120 87 1919ft 184kts
22-May-20 15:22 33.433732 -111.907064 88 3152ft 243kts
22-May-20 15:23 33.397118 -111.846812 172 5316ft 258kts
22-May-20 15:24 33.353646 -111.899298 269 8228ft 256kts
22-May-20 15:25 33.361730 -111.989569 273 10267ft 285kts
22-May-20 15:26 33.375911 -112.094309 277 11583ft 345kts
22-May-20 15:27 33.392787 -112.208262 277 14385ft 354kts
22-May-20 15:28 33.410055 -112.325551 277 17000ft 364kts
22-May-20 15:29 33.427704 -112.446227 277 19559ft 372kts
22-May-20 15:30 33.445531 -112.569012 277 21914ft 380kts
22-May-20 15:31 33.451287 -112.694114 269 24136ft 384kts
22-May-20 15:32 33.461659 -112.822865 287 26215ft 398kts
22-May-20 15:33 33.504375 -112.946985 289 28145ft 407kts
22-May-20 15:34 33.548396 -113.073312 289 30000ft 414kts
22-May-20 15:35 33.593151 -113.202041 289 31519ft 423kts
22-May-20 15:36 33.638390 -113.332623 289 33185ft 421kts
22-May-20 15:37 33.682895 -113.461626 288 33819ft 416kts
22-May-20 15:38 33.715353 -113.556073 288 33819ft 415kts
22-May-20 15:39 33.758948 -113.683348 288 33831ft 414kts
22-May-20 15:40 33.802582 -113.811234 288 33829ft 414kts
22-May-20 15:41 33.846043 -113.939003 288 33828ft 413kts
22-May-20 15:42 33.889375 -114.066918 288 33815ft 413kts
22-May-20 15:43 33.919462 -114.198991 279 33783ft 409kts
22-May-20 15:44 33.942384 -114.333066 279 33767ft 410kts
22-May-20 15:45 33.965092 -114.467779 279 33766ft 410kts
22-May-20 15:46 33.987554 -114.602137 279 33764ft 410kts
22-May-20 15:47 34.009785 -114.736045 278 33774ft 410kts
22-May-20 15:48 34.032076 -114.871294 278 33774ft 411kts
22-May-20 15:49 34.054186 -115.006443 278 33774ft 410kts
22-May-20 15:50 34.076150 -115.141278 278 33783ft 410kts
22-May-20 15:51 34.097967 -115.276144 278 33790ft 411kts
22-May-20 15:52 34.119576 -115.410682 278 33791ft 409kts
22-May-20 15:53 34.141123 -115.545866 278 33794ft 410kts
22-May-20 15:54 34.161146 -115.680123 271 33809ft 408kts
22-May-20 15:55 34.151317 -115.816864 263 33361ft 405kts
22-May-20 15:56 34.138544 -115.950675 262 32092ft 398kts
22-May-20 15:57 34.125805 -116.081206 262 30436ft 387kts
22-May-20 15:58 34.113303 -116.207845 262 28679ft 377kts
22-May-20 15:59 34.100648 -116.332601 262 26991ft 372kts
22-May-20 16:00 34.087558 -116.455013 262 25318ft 366kts
22-May-20 16:01 34.074512 -116.575889 263 23693ft 361kts
22-May-20 16:02 34.063278 -116.695016 263 22086ft 357kts
22-May-20 16:03 34.052200 -116.813566 263 20493ft 352kts
22-May-20 16:04 34.039948 -116.928829 261 18956ft 344kts
22-May-20 16:05 34.025434 -117.041213 262 17526ft 337kts
22-May-20 16:06 34.012350 -117.151886 262 16127ft 328kts
22-May-20 16:07 33.999430 -117.260123 262 14737ft 324kts
22-May-20 16:08 33.986987 -117.365045 262 13465ft 309kts
22-May-20 16:09 33.974957 -117.467079 262 12303ft 305kts
22-May-20 16:10 33.986340 -117.566346 281 11181ft 290kts
22-May-20 16:11 34.002347 -117.657237 280 10230ft 269kts
22-May-20 16:12 34.000777 -117.744373 263 9226ft 258kts
22-May-20 16:13 33.992740 -117.828896 263 8427ft 251kts
22-May-20 16:14 33.984650 -117.912175 262 7727ft 250kts
22-May-20 16:15 33.976610 -117.993764 262 6545ft 234kts
22-May-20 16:16 33.968875 -118.071500 261 5285ft 227kts
22-May-20 16:17 33.961382 -118.146422 261 4084ft 221kts
22-May-20 16:18 33.954357 -118.216318 261 2869ft 196kts
22-May-20 16:19 33.948234 -118.275972 260 1902ft 167kts
22-May-20 16:20 33.942970 -118.326358 262 1063ft 142kts
22-May-20 16:21 33.938318 -118.373716 261 314ft 139kts
22-May-20 16:23 33.934971 -118.406244 260 114ft 25kts
22-May-20 16:24 33.933821 -118.406866 122 114ft 0kts
22-May-20 16:25 33.933736 -118.406308 86 114ft 5kts
22-May-20 16:26 33.933341 -118.404845 173 114ft 4kts
22-May-20 16:27 33.932603 -118.404741 173 114ft 0kts

Navigation Log

Ident Type
Flight plan parsing failed, navigation log unavailable